Time;durP1;ratioP1;P1;durP2;ratioP2;P2;SDS_P1;SDS_P2;PMS_P1;PMS_P2;Temp;Humidity;BMP_temperature;BMP_pressure;BME280_temperature;BME280_humidity;BME280_pressure;Samples;Min_cycle;Max_cycle;Signal;HPM_P1;HPM_P2
2022/05/28 00:01:31;;;;;;;6.70;1.98;;;;;;;;;;5029221;28;20036;-71
2022/05/28 00:03:59;;;;;;;4.97;1.85;;;;;;;;;;5029529;28;20386;-71
2022/05/28 00:06:28;;;;;;;7.60;1.70;;;;;;;;;;5029610;28;20083;-71
2022/05/28 00:08:56;;;;;;;3.30;1.73;;;;;;;;;;5029385;28;20293;-71
2022/05/28 00:11:26;;;;;;;3.67;2.30;;;;;;;;;;5028935;28;20495;-71
2022/05/28 00:13:53;;;;;;;4.55;1.77;;;;;;;;;;5029150;28;20314;-70
2022/05/28 00:16:20;;;;;;;5.60;3.10;;;;;;;;;;5027859;28;20519;-70
2022/05/28 00:18:46;;;;;;;5.18;2.00;;;;;;;;;;5029632;28;20547;-70
2022/05/28 00:21:14;;;;;;;2.80;2.03;;;;;;;;;;5033016;28;20390;-71
2022/05/28 00:23:42;;;;;;;8.20;2.30;;;;;;;;;;5032870;28;20041;-71
2022/05/28 00:26:08;;;;;;;6.10;2.58;;;;;;;;;;5031612;28;20025;-70
2022/05/28 00:28:34;;;;;;;6.13;2.00;;;;;;;;;;5031521;28;20041;-72
2022/05/28 00:31:00;;;;;;;10.73;2.55;;;;;;;;;;5032984;28;20029;-71
2022/05/28 00:33:27;;;;;;;5.05;2.08;;;;;;;;;;5014947;28;20393;-72
2022/05/28 00:35:53;;;;;;;7.53;2.00;;;;;;;;;;5031314;28;20029;-72
2022/05/28 00:38:19;;;;;;;14.07;2.83;;;;;;;;;;5015101;28;20087;-72
2022/05/28 00:40:50;;;;;;;9.95;2.20;;;;;;;;;;5031349;28;20523;-71
2022/05/28 00:43:16;;;;;;;8.97;2.50;;;;;;;;;;5031555;28;20107;-71
2022/05/28 00:45:42;;;;;;;5.75;2.30;;;;;;;;;;5031253;28;20125;-71
2022/05/28 00:48:09;;;;;;;5.97;1.83;;;;;;;;;;5031484;28;20496;-71
2022/05/28 00:50:36;;;;;;;5.97;2.00;;;;;;;;;;5030978;28;20116;-71
2022/05/28 00:53:03;;;;;;;3.50;2.28;;;;;;;;;;5031271;28;20025;-72
2022/05/28 00:55:31;;;;;;;5.40;2.30;;;;;;;;;;5014354;28;20034;-70
2022/05/28 00:58:00;;;;;;;6.43;1.73;;;;;;;;;;5030915;28;20056;-71
2022/05/28 01:00:26;;;;;;;6.63;2.08;;;;;;;;;;5030689;28;20033;-71
2022/05/28 01:02:54;;;;;;;6.07;2.30;;;;;;;;;;5031192;28;20505;-71
2022/05/28 01:05:37;;;;;;;9.23;2.28;;;;;;;;;;5031006;28;20034;-71
2022/05/28 01:08:26;;;;;;;7.00;2.17;;;;;;;;;;5032602;28;20064;-71
2022/05/28 01:11:10;;;;;;;7.23;2.50;;;;;;;;;;5031282;28;20111;-72
2022/05/28 01:13:53;;;;;;;8.07;2.80;;;;;;;;;;5030918;28;20032;-72
2022/05/28 01:17:09;;;;;;;3.72;2.22;;;;;;;;;;5015320;28;20700;-72
2022/05/28 01:20:01;;;;;;;11.60;2.37;;;;;;;;;;5021643;28;20077;-71
2022/05/28 01:22:35;;;;;;;10.73;2.30;;;;;;;;;;5017704;28;20401;-71
2022/05/28 01:25:01;;;;;;;4.20;2.45;;;;;;;;;;5011889;28;20038;-70
2022/05/28 01:27:37;;;;;;;5.82;2.33;;;;;;;;;;5010371;28;20041;-71
2022/05/28 01:30:10;;;;;;;5.85;3.50;;;;;;;;;;5011189;28;20026;-71
2022/05/28 01:32:38;;;;;;;7.13;2.50;;;;;;;;;;5010488;28;20121;-71
2022/05/28 01:35:09;;;;;;;4.83;2.17;;;;;;;;;;5011119;28;20037;-71
2022/05/28 01:37:36;;;;;;;4.57;2.00;;;;;;;;;;5010948;28;20509;-70
2022/05/28 01:40:06;;;;;;;3.90;2.07;;;;;;;;;;4994343;28;20104;-71
2022/05/28 01:42:33;;;;;;;14.80;2.63;;;;;;;;;;5011725;28;20121;-71
2022/05/28 01:45:00;;;;;;;6.38;2.28;;;;;;;;;;5011954;28;20101;-71
2022/05/28 01:47:28;;;;;;;4.63;2.20;;;;;;;;;;5010444;28;20042;-71
2022/05/28 01:49:53;;;;;;;12.30;2.13;;;;;;;;;;5011835;28;20513;-71
2022/05/28 01:52:21;;;;;;;8.43;2.07;;;;;;;;;;5010511;28;20022;-71
2022/05/28 01:54:49;;;;;;;4.47;2.40;;;;;;;;;;5010147;28;20068;-71
2022/05/28 01:57:15;;;;;;;4.37;1.90;;;;;;;;;;5010117;28;20032;-71
2022/05/28 01:59:43;;;;;;;8.87;2.10;;;;;;;;;;5009953;28;20037;-70
2022/05/28 02:02:12;;;;;;;9.37;2.97;;;;;;;;;;5010190;28;20030;-70
2022/05/28 02:04:40;;;;;;;8.47;3.60;;;;;;;;;;5010111;28;20053;-70
2022/05/28 02:07:06;;;;;;;7.80;2.80;;;;;;;;;;5010071;28;20029;-70
2022/05/28 02:09:36;;;;;;;8.70;2.33;;;;;;;;;;5011695;28;20360;-70
2022/05/28 02:12:07;;;;;;;6.67;2.00;;;;;;;;;;5011459;28;20108;-71
2022/05/28 02:14:36;;;;;;;5.38;2.40;;;;;;;;;;5009627;28;20084;-71
2022/05/28 02:17:10;;;;;;;2.57;1.80;;;;;;;;;;5010994;28;20049;-71
2022/05/28 02:19:49;;;;;;;9.70;3.33;;;;;;;;;;5016371;28;20034;-72
2022/05/28 02:22:29;;;;;;;8.20;2.17;;;;;;;;;;5029092;28;20076;-71
2022/05/28 02:25:01;;;;;;;10.23;3.00;;;;;;;;;;5028718;28;20424;-71
2022/05/28 02:27:28;;;;;;;8.67;2.33;;;;;;;;;;5028913;28;20079;-71
2022/05/28 02:29:54;;;;;;;8.67;2.30;;;;;;;;;;5028555;28;20026;-70
2022/05/28 02:32:23;;;;;;;3.70;2.30;;;;;;;;;;5028945;28;20503;-70
2022/05/28 02:34:50;;;;;;;5.17;2.07;;;;;;;;;;5029401;28;20099;-70
2022/05/28 02:37:20;;;;;;;8.33;1.97;;;;;;;;;;5031561;28;20034;-70
2022/05/28 02:39:46;;;;;;;7.63;2.20;;;;;;;;;;5029228;28;20029;-70
2022/05/28 02:42:11;;;;;;;8.73;2.13;;;;;;;;;;5012507;28;20068;-70
2022/05/28 02:44:37;;;;;;;7.87;2.30;;;;;;;;;;5030394;28;20053;-70
2022/05/28 02:47:03;;;;;;;5.67;2.13;;;;;;;;;;5029171;28;20035;-71
2022/05/28 02:49:30;;;;;;;13.03;2.83;;;;;;;;;;5030694;28;20017;-72
2022/05/28 02:51:56;;;;;;;7.27;2.50;;;;;;;;;;5029185;28;20025;-71
2022/05/28 02:54:22;;;;;;;4.33;1.87;;;;;;;;;;5030544;28;20025;-71
2022/05/28 02:56:49;;;;;;;8.47;1.83;;;;;;;;;;5028876;28;20534;-71
2022/05/28 02:59:15;;;;;;;6.13;2.40;;;;;;;;;;5012462;28;20097;-71
2022/05/28 03:01:40;;;;;;;3.70;1.90;;;;;;;;;;5028725;28;20025;-70
2022/05/28 03:04:08;;;;;;;5.10;2.47;;;;;;;;;;5029493;28;20036;-71
2022/05/28 03:06:37;;;;;;;5.37;1.87;;;;;;;;;;5028580;28;20539;-71
2022/05/28 03:09:05;;;;;;;5.83;2.20;;;;;;;;;;5030009;28;20413;-71
2022/05/28 03:11:33;;;;;;;4.00;1.90;;;;;;;;;;5028490;28;20033;-71
2022/05/28 03:13:58;;;;;;;6.30;2.43;;;;;;;;;;5028541;28;20025;-70
2022/05/28 03:16:24;;;;;;;11.87;2.80;;;;;;;;;;5028498;28;20032;-70
2022/05/28 03:18:49;;;;;;;8.10;2.43;;;;;;;;;;5029653;28;20052;-71
2022/05/28 03:21:17;;;;;;;6.00;1.80;;;;;;;;;;5012551;28;20045;-72
2022/05/28 03:23:47;;;;;;;2.57;1.83;;;;;;;;;;5028334;28;20136;-72
2022/05/28 03:26:24;;;;;;;4.77;1.63;;;;;;;;;;5029793;28;20029;-71
2022/05/28 03:28:56;;;;;;;5.33;1.90;;;;;;;;;;5027961;28;20052;-71
2022/05/28 03:31:23;;;;;;;6.17;1.73;;;;;;;;;;5028415;28;20089;-71
2022/05/28 03:33:50;;;;;;;7.87;2.10;;;;;;;;;;5028016;28;20052;-71
2022/05/28 03:36:19;;;;;;;3.00;1.63;;;;;;;;;;5028262;28;20038;-70
2022/05/28 03:38:45;;;;;;;5.00;1.80;;;;;;;;;;5029395;28;20104;-71
2022/05/28 03:41:10;;;;;;;6.47;1.60;;;;;;;;;;5029528;28;20112;-71
2022/05/28 03:43:36;;;;;;;8.43;2.63;;;;;;;;;;5029538;28;20033;-72
2022/05/28 03:46:03;;;;;;;11.47;2.17;;;;;;;;;;5028284;28;20037;-71
2022/05/28 03:48:30;;;;;;;6.20;1.50;;;;;;;;;;5029517;28;20092;-71
2022/05/28 03:50:56;;;;;;;14.53;2.67;;;;;;;;;;5028135;28;20053;-71
2022/05/28 03:53:22;;;;;;;3.10;1.87;;;;;;;;;;5028585;28;20133;-71
2022/05/28 03:55:49;;;;;;;5.10;1.50;;;;;;;;;;5028017;28;20029;-73
2022/05/28 03:58:15;;;;;;;4.47;2.00;;;;;;;;;;5011690;28;20030;-70
2022/05/28 04:00:41;;;;;;;7.23;2.17;;;;;;;;;;5029519;28;20018;-71
2022/05/28 04:03:08;;;;;;;10.30;2.43;;;;;;;;;;5027919;28;20395;-70
2022/05/28 04:05:38;;;;;;;7.93;2.27;;;;;;;;;;5027714;28;20037;-71
2022/05/28 04:08:04;;;;;;;6.27;1.90;;;;;;;;;;5029233;28;20128;-71
2022/05/28 04:10:29;;;;;;;2.83;1.90;;;;;;;;;;5029203;28;20049;-70
2022/05/28 04:12:55;;;;;;;6.50;2.10;;;;;;;;;;5029717;28;20547;-71
2022/05/28 04:15:20;;;;;;;8.57;1.93;;;;;;;;;;5027982;28;20067;-71
2022/05/28 04:17:46;;;;;;;5.73;2.33;;;;;;;;;;5027441;28;20095;-71
2022/05/28 04:20:13;;;;;;;2.43;2.13;;;;;;;;;;5029376;28;20178;-71
2022/05/28 04:22:38;;;;;;;4.07;2.27;;;;;;;;;;5029017;28;20018;-71
2022/05/28 04:25:05;;;;;;;5.67;1.80;;;;;;;;;;5027814;28;20029;-70
2022/05/28 04:27:31;;;;;;;5.30;2.43;;;;;;;;;;5027762;28;20037;-71
2022/05/28 04:29:59;;;;;;;9.40;2.50;;;;;;;;;;5028784;28;20485;-71
2022/05/28 04:32:24;;;;;;;6.53;2.23;;;;;;;;;;5027874;28;20025;-71
2022/05/28 04:34:50;;;;;;;4.63;1.77;;;;;;;;;;5010968;28;20116;-71
2022/05/28 04:37:15;;;;;;;6.20;2.07;;;;;;;;;;5027387;28;20122;-71
2022/05/28 04:39:41;;;;;;;6.53;2.20;;;;;;;;;;5028817;28;20101;-71
2022/05/28 04:42:06;;;;;;;2.50;1.70;;;;;;;;;;5027376;28;20096;-71
2022/05/28 04:44:32;;;;;;;6.83;2.10;;;;;;;;;;5029162;28;20096;-71
2022/05/28 04:46:57;;;;;;;5.83;1.83;;;;;;;;;;5027175;28;20385;-71
2022/05/28 04:49:23;;;;;;;4.70;1.70;;;;;;;;;;5027260;28;20242;-71
2022/05/28 04:51:50;;;;;;;4.20;1.73;;;;;;;;;;5027362;28;20166;-71
2022/05/28 04:54:15;;;;;;;2.40;1.70;;;;;;;;;;5027432;28;20516;-71
2022/05/28 04:56:41;;;;;;;4.30;2.00;;;;;;;;;;5028551;28;20416;-70
2022/05/28 04:59:06;;;;;;;9.60;1.80;;;;;;;;;;5027090;28;20444;-70
2022/05/28 05:01:32;;;;;;;6.90;1.83;;;;;;;;;;5027353;28;20370;-72
2022/05/28 05:03:58;;;;;;;5.60;1.73;;;;;;;;;;5027176;28;20400;-71
2022/05/28 05:06:23;;;;;;;7.63;1.77;;;;;;;;;;5030611;28;20120;-71
2022/05/28 05:08:50;;;;;;;4.03;2.40;;;;;;;;;;5032578;28;20068;-71
2022/05/28 05:11:17;;;;;;;4.77;1.53;;;;;;;;;;5030760;28;20052;-71
2022/05/28 05:13:44;;;;;;;2.80;1.67;;;;;;;;;;5030533;28;20029;-72
2022/05/28 05:16:11;;;;;;;5.63;1.80;;;;;;;;;;5030998;28;20112;-72
2022/05/28 05:18:37;;;;;;;5.63;1.60;;;;;;;;;;5030701;28;20037;-71
2022/05/28 05:21:03;;;;;;;4.97;1.50;;;;;;;;;;5030744;28;20485;-71
2022/05/28 05:23:29;;;;;;;5.60;1.53;;;;;;;;;;5032075;28;20057;-71
2022/05/28 05:25:56;;;;;;;6.03;1.60;;;;;;;;;;5031698;28;20477;-71
2022/05/28 05:28:22;;;;;;;5.63;1.57;;;;;;;;;;5031802;28;20485;-71
2022/05/28 05:30:48;;;;;;;6.00;1.20;;;;;;;;;;5030360;28;20075;-71
2022/05/28 05:33:14;;;;;;;3.73;1.27;;;;;;;;;;5031655;28;20029;-72
2022/05/28 05:35:39;;;;;;;5.27;1.13;;;;;;;;;;5030468;28;20576;-71
2022/05/28 05:38:07;;;;;;;4.67;1.07;;;;;;;;;;5030465;28;20030;-71
2022/05/28 05:40:37;;;;;;;4.97;1.23;;;;;;;;;;5030500;28;20017;-71
2022/05/28 05:43:03;;;;;;;2.73;0.90;;;;;;;;;;5031434;28;20032;-71
2022/05/28 05:45:29;;;;;;;2.40;0.87;;;;;;;;;;5030485;28;20040;-71
2022/05/28 05:47:56;;;;;;;1.90;0.80;;;;;;;;;;5029824;28;20423;-71
2022/05/28 05:50:22;;;;;;;6.00;1.10;;;;;;;;;;5029984;28;20022;-71
2022/05/28 05:52:48;;;;;;;4.20;1.53;;;;;;;;;;5029758;28;20032;-71
2022/05/28 05:55:14;;;;;;;3.67;0.73;;;;;;;;;;5046548;28;20040;-71
2022/05/28 05:57:39;;;;;;;6.00;1.17;;;;;;;;;;5030950;28;20408;-72
2022/05/28 06:00:05;;;;;;;4.50;0.80;;;;;;;;;;5029800;28;20108;-71
2022/05/28 06:02:32;;;;;;;1.90;1.00;;;;;;;;;;5029808;28;20360;-70
2022/05/28 06:04:58;;;;;;;2.47;0.98;;;;;;;;;;5030962;28;20533;-72
2022/05/28 06:07:25;;;;;;;3.23;1.20;;;;;;;;;;5030991;28;20068;-72
2022/05/28 06:09:51;;;;;;;2.60;1.02;;;;;;;;;;5029622;28;20041;-71
2022/05/28 06:12:16;;;;;;;4.43;0.90;;;;;;;;;;5031036;28;20021;-71
2022/05/28 06:14:43;;;;;;;5.43;0.82;;;;;;;;;;5030778;28;20028;-72
2022/05/28 06:17:09;;;;;;;3.92;0.80;;;;;;;;;;5029948;28;20082;-72
2022/05/28 06:19:34;;;;;;;1.25;0.60;;;;;;;;;;5062563;28;20033;-72
2022/05/28 06:22:01;;;;;;;1.45;0.80;;;;;;;;;;5029293;28;20367;-72
2022/05/28 06:24:27;;;;;;;2.42;0.90;;;;;;;;;;5013166;28;20448;-71
2022/05/28 06:26:53;;;;;;;6.50;1.10;;;;;;;;;;5029445;28;20112;-72
2022/05/28 06:29:18;;;;;;;3.60;0.93;;;;;;;;;;5029496;28;20129;-72
2022/05/28 06:31:44;;;;;;;1.23;0.63;;;;;;;;;;5029218;28;20537;-72
2022/05/28 06:34:09;;;;;;;4.13;0.73;;;;;;;;;;5029257;28;20362;-71
2022/05/28 06:36:35;;;;;;;2.15;0.77;;;;;;;;;;5029333;28;20052;-71
2022/05/28 06:39:01;;;;;;;5.25;1.25;;;;;;;;;;5030640;28;20026;-73
2022/05/28 06:41:27;;;;;;;3.33;1.40;;;;;;;;;;5029360;28;20416;-72
2022/05/28 06:43:52;;;;;;;3.40;0.85;;;;;;;;;;5029037;28;20052;-72
2022/05/28 06:46:18;;;;;;;4.50;1.00;;;;;;;;;;5030358;28;20028;-72
2022/05/28 06:48:43;;;;;;;6.85;1.27;;;;;;;;;;5030280;28;20025;-72
2022/05/28 06:51:09;;;;;;;2.80;1.13;;;;;;;;;;5030328;28;20063;-72
2022/05/28 06:53:40;;;;;;;5.93;0.93;;;;;;;;;;5012466;28;20033;-72
2022/05/28 06:56:07;;;;;;;5.93;1.20;;;;;;;;;;5028804;28;20036;-72
2022/05/28 06:58:33;;;;;;;3.88;1.08;;;;;;;;;;5028780;28;20263;-71
2022/05/28 07:01:01;;;;;;;0.90;0.65;;;;;;;;;;5028730;28;20061;-71
2022/05/28 07:03:28;;;;;;;7.05;1.23;;;;;;;;;;5030016;28;20477;-71
2022/05/28 07:05:55;;;;;;;4.07;0.80;;;;;;;;;;5029619;28;20432;-71
2022/05/28 07:08:21;;;;;;;1.98;0.90;;;;;;;;;;5029766;28;20437;-72
2022/05/28 07:10:49;;;;;;;3.95;0.77;;;;;;;;;;5028170;28;20052;-72
2022/05/28 07:13:16;;;;;;;2.80;1.10;;;;;;;;;;5028586;28;20068;-72
2022/05/28 07:15:42;;;;;;;4.40;1.15;;;;;;;;;;5011289;28;20041;-71
2022/05/28 07:18:09;;;;;;;3.92;1.70;;;;;;;;;;5027499;28;20056;-70
2022/05/28 07:20:36;;;;;;;2.80;1.00;;;;;;;;;;5061518;28;20128;-71
2022/05/28 07:23:12;;;;;;;2.10;1.05;;;;;;;;;;5010621;28;20037;-72
2022/05/28 07:25:38;;;;;;;1.95;0.75;;;;;;;;;;5008513;28;20038;-71
2022/05/28 07:28:24;;;;;;;2.25;0.55;;;;;;;;;;5008488;28;20041;-71
2022/05/28 07:30:49;;;;;;;5.82;1.05;;;;;;;;;;5009499;28;20029;-71
2022/05/28 07:33:15;;;;;;;1.10;0.50;;;;;;;;;;5008708;28;20488;-71
2022/05/28 07:35:41;;;;;;;6.57;1.60;;;;;;;;;;5009878;28;20334;-71
2022/05/28 07:38:07;;;;;;;4.65;1.45;;;;;;;;;;5008077;28;20041;-71
2022/05/28 07:40:34;;;;;;;5.97;0.93;;;;;;;;;;5009913;28;20101;-72
2022/05/28 07:43:00;;;;;;;4.50;0.80;;;;;;;;;;5009645;28;20033;-71
2022/05/28 07:45:26;;;;;;;3.17;0.50;;;;;;;;;;5008094;28;20036;-71
2022/05/28 07:47:51;;;;;;;1.55;0.60;;;;;;;;;;5009459;28;20022;-71
2022/05/28 07:50:20;;;;;;;3.25;1.48;;;;;;;;;;5008178;28;20105;-71
2022/05/28 07:52:47;;;;;;;4.82;0.52;;;;;;;;;;5007674;28;20443;-72
2022/05/28 07:55:13;;;;;;;3.80;0.63;;;;;;;;;;5024495;28;20026;-73
2022/05/28 07:57:39;;;;;;;2.78;0.50;;;;;;;;;;5007909;28;20029;-72
2022/05/28 08:00:05;;;;;;;3.70;1.10;;;;;;;;;;5007694;28;20022;-72
2022/05/28 08:02:30;;;;;;;5.07;0.90;;;;;;;;;;5009236;28;20033;-72
2022/05/28 08:04:56;;;;;;;1.35;0.50;;;;;;;;;;5008224;28;20030;-73
2022/05/28 08:07:21;;;;;;;1.13;0.70;;;;;;;;;;5009484;28;20033;-72
2022/05/28 08:09:47;;;;;;;2.53;0.80;;;;;;;;;;5009555;28;20132;-74
2022/05/28 08:12:13;;;;;;;3.92;0.93;;;;;;;;;;5008088;28;20452;-72
2022/05/28 08:14:38;;;;;;;4.28;0.65;;;;;;;;;;5008040;28;20022;-72
2022/05/28 08:17:04;;;;;;;2.58;0.93;;;;;;;;;;5008967;28;20054;-75
2022/05/28 08:19:32;;;;;;;1.98;0.65;;;;;;;;;;5008315;28;20485;-75
2022/05/28 08:24:41;;;;;;;8.63;0.77;;;;;;;;;;5029158;28;20111;-75
2022/05/28 08:27:07;;;;;;;3.05;0.95;;;;;;;;;;5027392;28;20401;-75
2022/05/28 08:29:35;;;;;;;3.03;1.60;;;;;;;;;;5027761;28;20112;-74
2022/05/28 08:32:01;;;;;;;1.27;0.80;;;;;;;;;;5011430;28;20111;-72
2022/05/28 08:34:26;;;;;;;2.70;0.73;;;;;;;;;;5027822;28;20056;-71
2022/05/28 08:36:52;;;;;;;1.38;0.63;;;;;;;;;;5028789;28;20036;-71
2022/05/28 08:39:17;;;;;;;5.40;0.60;;;;;;;;;;5028763;28;20025;-72
2022/05/28 08:41:48;;;;;;;0.90;0.70;;;;;;;;;;5031331;28;20397;-72
2022/05/28 08:44:18;;;;;;;3.03;0.52;;;;;;;;;;5015144;28;20131;-72
2022/05/28 08:46:45;;;;;;;1.83;1.17;;;;;;;;;;5030666;28;20127;-72
2022/05/28 08:49:14;;;;;;;0.98;0.73;;;;;;;;;;5014426;28;20048;-71
2022/05/28 08:51:48;;;;;;;1.65;0.52;;;;;;;;;;5014798;28;20033;-74
2022/05/28 08:54:26;;;;;;;2.55;0.70;;;;;;;;;;5031116;28;20040;-71
2022/05/28 08:56:56;;;;;;;0.90;0.50;;;;;;;;;;5032423;28;20318;-71
2022/05/28 08:59:28;;;;;;;2.08;0.55;;;;;;;;;;5031267;28;20029;-72
2022/05/28 09:01:54;;;;;;;;;;;;;;;;;;5033084;28;20076;-72
2022/05/28 09:04:36;;;;;;;3.72;0.50;;;;;;;;;;5030530;28;19913;-72
2022/05/28 09:07:06;;;;;;;1.10;0.50;;;;;;;;;;5030384;28;20094;-72
2022/05/28 09:09:42;;;;;;;0.80;0.47;;;;;;;;;;5030624;28;20052;-72
2022/05/28 09:12:14;;;;;;;3.50;0.63;;;;;;;;;;5030392;28;20021;-73
2022/05/28 09:14:39;;;;;;;0.75;0.52;;;;;;;;;;5014304;28;20026;-72
2022/05/28 09:17:20;;;;;;;4.40;0.60;;;;;;;;;;5031408;28;20029;-72
2022/05/28 09:19:48;;;;;;;4.65;0.70;;;;;;;;;;5030384;28;20080;-71
2022/05/28 09:22:15;;;;;;;1.85;0.70;;;;;;;;;;5031439;28;20060;-72
2022/05/28 09:24:42;;;;;;;1.45;0.60;;;;;;;;;;5030606;28;20493;-72
2022/05/28 09:27:45;;;;;;;1.83;0.65;;;;;;;;;;5031626;28;20390;-72
2022/05/28 09:30:22;;;;;;;2.17;0.70;;;;;;;;;;5029876;28;20017;-72
2022/05/28 09:33:16;;;;;;;3.03;0.98;;;;;;;;;;5030436;28;20033;-71
2022/05/28 09:35:50;;;;;;;2.33;0.70;;;;;;;;;;5030871;28;20056;-73
2022/05/28 09:39:11;;;;;;;2.70;0.50;;;;;;;;;;5031267;28;20060;-72
2022/05/28 09:41:39;;;;;;;4.88;0.80;;;;;;;;;;4973221;28;20035;-72
2022/05/28 09:44:32;;;;;;;2.00;0.60;;;;;;;;;;5018828;28;20549;-73
2022/05/28 09:47:10;;;;;;;2.92;0.73;;;;;;;;;;5029941;28;20022;-71
2022/05/28 09:49:54;;;;;;;2.17;0.60;;;;;;;;;;5029985;28;20629;-72
2022/05/28 09:52:34;;;;;;;0.70;0.70;;;;;;;;;;5013726;28;20025;-72
2022/05/28 09:55:18;;;;;;;4.28;0.70;;;;;;;;;;5029732;28;20021;-72
2022/05/28 09:58:01;;;;;;;4.35;0.90;;;;;;;;;;5026923;28;20537;-72
2022/05/28 10:00:28;;;;;;;3.85;1.02;;;;;;;;;;5029830;28;20449;-72
2022/05/28 10:05:52;;;;;;;1.42;0.90;;;;;;;;;;5031486;28;20445;-72
2022/05/28 10:08:18;;;;;;;5.03;1.27;;;;;;;;;;5029366;28;20355;-72
2022/05/28 10:10:56;;;;;;;2.80;0.93;;;;;;;;;;5029391;28;20021;-71
2022/05/28 10:13:25;;;;;;;4.35;0.90;;;;;;;;;;5029726;28;20036;-72
2022/05/28 10:15:54;;;;;;;2.70;0.75;;;;;;;;;;5031071;28;20049;-72
2022/05/28 10:18:23;;;;;;;2.10;0.73;;;;;;;;;;5029250;28;20167;-71
2022/05/28 10:21:26;;;;;;;3.33;0.60;;;;;;;;;;5029400;28;20493;-72
2022/05/28 10:23:56;;;;;;;5.50;1.70;;;;;;;;;;5011066;28;20033;-72
2022/05/28 10:26:29;;;;;;;1.58;0.88;;;;;;;;;;5011258;28;20049;-72
2022/05/28 10:29:00;;;;;;;5.20;0.80;;;;;;;;;;5009406;28;20084;-72
2022/05/28 10:31:30;;;;;;;3.05;0.90;;;;;;;;;;5009725;28;20064;-74
2022/05/28 10:33:58;;;;;;;4.75;1.20;;;;;;;;;;5009693;28;20133;-73
2022/05/28 10:36:31;;;;;;;3.95;1.45;;;;;;;;;;4993532;28;20034;-71
2022/05/28 10:39:10;;;;;;;3.45;0.90;;;;;;;;;;4993676;28;20091;-72
2022/05/28 10:41:37;;;;;;;3.08;0.98;;;;;;;;;;5009294;28;20030;-71
2022/05/28 10:44:04;;;;;;;0.68;0.35;;;;;;;;;;5008866;28;20041;-73
2022/05/28 10:46:56;;;;;;;4.35;0.85;;;;;;;;;;4993047;28;20018;-72
2022/05/28 10:49:39;;;;;;;2.47;0.80;;;;;;;;;;5041342;28;20474;-73
2022/05/28 10:52:05;;;;;;;3.38;0.95;;;;;;;;;;5008797;28;20474;-72
2022/05/28 10:55:05;;;;;;;2.55;1.67;;;;;;;;;;5009023;28;20113;-72
2022/05/28 10:57:47;;;;;;;2.30;0.80;;;;;;;;;;5009916;28;20061;-73
2022/05/28 11:00:19;;;;;;;3.35;0.55;;;;;;;;;;5010429;28;20052;-72
2022/05/28 11:02:54;;;;;;;4.22;1.30;;;;;;;;;;5009790;28;20057;-72
2022/05/28 11:05:38;;;;;;;2.83;0.70;;;;;;;;;;5010072;28;20032;-73
2022/05/28 11:08:22;;;;;;;1.55;0.65;;;;;;;;;;5009900;28;20026;-72
2022/05/28 11:10:56;;;;;;;2.08;0.80;;;;;;;;;;5009108;28;20022;-73
2022/05/28 11:14:00;;;;;;;2.33;0.85;;;;;;;;;;5010496;28;20083;-74
2022/05/28 11:16:50;;;;;;;3.15;1.15;;;;;;;;;;5008913;28;20390;-73
2022/05/28 11:19:50;;;;;;;3.30;0.88;;;;;;;;;;5008853;28;20041;-71
2022/05/28 11:22:35;;;;;;;0.73;0.70;;;;;;;;;;5020016;28;20029;-72
2022/05/28 11:25:30;;;;;;;2.03;0.55;;;;;;;;;;5029706;28;20021;-72
2022/05/28 11:28:06;;;;;;;2.60;0.93;;;;;;;;;;5028681;28;20025;-71
2022/05/28 11:30:42;;;;;;;2.72;0.90;;;;;;;;;;5029806;28;20024;-71
2022/05/28 11:33:15;;;;;;;7.07;1.20;;;;;;;;;;5029437;28;20069;-72
2022/05/28 11:35:49;;;;;;;2.20;1.20;;;;;;;;;;5028058;28;20499;-73
2022/05/28 11:38:46;;;;;;;3.15;1.00;;;;;;;;;;5027731;28;20042;-72
2022/05/28 11:41:36;;;;;;;3.75;0.70;;;;;;;;;;5027308;28;20120;-73
2022/05/28 11:44:34;;;;;;;4.20;0.90;;;;;;;;;;5029349;28;20163;-72
2022/05/28 11:47:17;;;;;;;2.97;0.80;;;;;;;;;;5025248;28;20033;-72
2022/05/28 11:52:45;;;;;;;3.92;0.82;;;;;;;;;;5029283;28;20116;-73
2022/05/28 11:55:17;;;;;;;4.82;1.15;;;;;;;;;;5029480;28;20021;-74
2022/05/28 11:57:54;;;;;;;1.88;0.70;;;;;;;;;;5028614;28;20025;-73
2022/05/28 12:00:21;;;;;;;3.97;1.25;;;;;;;;;;5027247;28;20120;-73
2022/05/28 12:02:58;;;;;;;1.90;0.70;;;;;;;;;;5027436;28;20021;-72
2022/05/28 12:05:37;;;;;;;2.80;0.70;;;;;;;;;;5028629;28;20021;-73
2022/05/28 12:08:04;;;;;;;2.42;0.88;;;;;;;;;;5027305;28;20112;-72
2022/05/28 12:10:50;;;;;;;1.90;0.63;;;;;;;;;;5028928;28;20052;-72
2022/05/28 12:13:43;;;;;;;4.82;0.60;;;;;;;;;;5028911;28;20462;-71
2022/05/28 12:16:11;;;;;;;;;;;;;;;;;;5032452;28;20579;-71
2022/05/28 12:18:42;;;;;;;3.47;0.95;;;;;;;;;;5031321;28;19917;-72
2022/05/28 12:21:08;;;;;;;2.55;0.98;;;;;;;;;;5029715;28;20044;-72
2022/05/28 12:23:35;;;;;;;4.88;1.15;;;;;;;;;;5011291;28;20373;-72
2022/05/28 12:26:14;;;;;;;1.70;0.65;;;;;;;;;;5045465;28;20718;-72
2022/05/28 12:28:51;;;;;;;2.08;0.80;;;;;;;;;;5013752;28;20065;-73
2022/05/28 12:31:27;;;;;;;3.42;1.48;;;;;;;;;;5011401;28;20426;-72
2022/05/28 12:33:57;;;;;;;6.25;1.73;;;;;;;;;;5011998;28;20108;-72
2022/05/28 12:36:47;;;;;;;1.85;0.60;;;;;;;;;;5011196;28;20546;-72
2022/05/28 12:39:34;;;;;;;3.30;0.77;;;;;;;;;;5012402;28;20426;-72
2022/05/28 12:42:03;;;;;;;2.00;0.77;;;;;;;;;;5012599;28;20034;-72
2022/05/28 12:44:29;;;;;;;1.65;0.70;;;;;;;;;;5012666;28;20022;-72
2022/05/28 12:47:00;;;;;;;6.13;0.80;;;;;;;;;;5012686;28;20076;-72
2022/05/28 12:49:28;;;;;;;3.33;0.93;;;;;;;;;;5012299;28;20025;-73
2022/05/28 12:52:20;;;;;;;2.10;0.82;;;;;;;;;;5044288;28;20060;-73
2022/05/28 12:54:48;;;;;;;2.10;0.68;;;;;;;;;;5012474;28;20025;-73
2022/05/28 12:57:31;;;;;;;3.72;0.82;;;;;;;;;;5011156;28;20417;-72
2022/05/28 13:00:06;;;;;;;1.40;0.40;;;;;;;;;;5011343;28;20021;-72
2022/05/28 13:02:41;;;;;;;2.72;0.70;;;;;;;;;;5012443;28;20037;-75
2022/05/28 13:05:11;;;;;;;4.25;0.80;;;;;;;;;;5011139;28;20026;-73
2022/05/28 13:07:45;;;;;;;2.78;1.10;;;;;;;;;;5012495;28;20159;-73
2022/05/28 13:10:26;;;;;;;2.05;0.55;;;;;;;;;;5010815;28;20113;-73
2022/05/28 13:13:00;;;;;;;2.72;0.77;;;;;;;;;;5012289;28;20530;-73
2022/05/28 13:15:50;;;;;;;8.27;0.70;;;;;;;;;;5011739;28;20064;-72
2022/05/28 13:18:21;;;;;;;2.05;0.47;;;;;;;;;;5043757;28;20045;-74
2022/05/28 13:20:54;;;;;;;;;;;;;;;;;;5012997;28;20040;-73
2022/05/28 13:23:32;;;;;;;3.65;0.80;;;;;;;;;;5029893;28;19995;-72
2022/05/28 13:26:09;;;;;;;2.88;1.05;;;;;;;;;;5029973;28;20021;-73
2022/05/28 13:29:03;;;;;;;3.60;0.60;;;;;;;;;;5030272;28;20033;-72
2022/05/28 13:31:31;;;;;;;1.92;0.98;;;;;;;;;;5031484;28;20021;-72
2022/05/28 13:33:59;;;;;;;1.73;0.70;;;;;;;;;;5030040;28;20436;-73
2022/05/28 13:36:28;;;;;;;1.55;0.63;;;;;;;;;;5029857;28;20029;-72
2022/05/28 13:38:55;;;;;;;1.75;0.80;;;;;;;;;;5031842;28;20104;-73
2022/05/28 13:41:24;;;;;;;5.32;0.60;;;;;;;;;;5031557;28;20385;-72
2022/05/28 13:43:54;;;;;;;2.10;0.98;;;;;;;;;;5030456;28;20021;-73
2022/05/28 13:46:21;;;;;;;2.75;0.80;;;;;;;;;;5029803;28;20037;-73
2022/05/28 13:48:53;;;;;;;6.25;0.88;;;;;;;;;;5030699;28;20029;-73
2022/05/28 13:51:20;;;;;;;1.00;0.60;;;;;;;;;;5029758;28;20044;-72
2022/05/28 13:53:51;;;;;;;3.15;0.77;;;;;;;;;;5030491;28;20045;-73
2022/05/28 13:56:25;;;;;;;3.15;1.13;;;;;;;;;;5030943;28;20037;-73
2022/05/28 13:58:51;;;;;;;2.72;0.50;;;;;;;;;;5029563;28;20043;-72
2022/05/28 14:01:30;;;;;;;6.50;1.13;;;;;;;;;;5031118;28;20021;-73
2022/05/28 14:04:16;;;;;;;4.63;1.63;;;;;;;;;;5030999;28;20025;-72
2022/05/28 14:06:59;;;;;;;3.53;0.90;;;;;;;;;;5062907;28;20029;-72
2022/05/28 14:09:35;;;;;;;4.50;1.48;;;;;;;;;;5031214;28;20468;-73
2022/05/28 14:12:02;;;;;;;5.55;1.70;;;;;;;;;;5031053;28;20100;-73
2022/05/28 14:14:28;;;;;;;1.38;0.57;;;;;;;;;;5029467;28;20176;-72
2022/05/28 14:17:00;;;;;;;1.17;0.77;;;;;;;;;;5029555;28;20029;-72
2022/05/28 14:19:29;;;;;;;3.60;0.90;;;;;;;;;;5012594;28;20068;-73
2022/05/28 14:21:58;;;;;;;3.33;0.75;;;;;;;;;;5029440;28;20025;-74
2022/05/28 14:24:38;;;;;;;2.85;0.90;;;;;;;;;;5030486;28;20034;-73
2022/05/28 14:27:12;;;;;;;2.17;0.52;;;;;;;;;;5029427;28;20383;-73
2022/05/28 14:29:43;;;;;;;1.13;0.60;;;;;;;;;;5030520;28;20080;-73
2022/05/28 14:32:21;;;;;;;3.22;1.08;;;;;;;;;;5028923;28;20025;-73
2022/05/28 14:34:49;;;;;;;4.18;1.00;;;;;;;;;;5029142;28;20481;-72
2022/05/28 14:37:25;;;;;;;3.85;0.80;;;;;;;;;;5012253;28;20037;-72
2022/05/28 14:39:51;;;;;;;3.67;0.68;;;;;;;;;;5030469;28;20473;-73
2022/05/28 14:42:41;;;;;;;4.70;0.70;;;;;;;;;;5030368;28;20032;-73
2022/05/28 14:45:21;;;;;;;3.90;0.70;;;;;;;;;;5029797;28;20168;-71
2022/05/28 14:47:50;;;;;;;2.33;0.75;;;;;;;;;;5029487;28;20028;-73
2022/05/28 14:50:27;;;;;;;1.88;0.60;;;;;;;;;;5028554;28;20297;-74
2022/05/28 14:52:52;;;;;;;8.70;5.05;;;;;;;;;;5028840;28;20075;-73
2022/05/28 14:55:34;;;;;;;3.47;0.73;;;;;;;;;;5029760;28;20421;-73
2022/05/28 14:58:21;;;;;;;2.30;0.75;;;;;;;;;;5028641;28;20390;-73
2022/05/28 15:00:49;;;;;;;1.70;0.73;;;;;;;;;;5029573;28;20025;-73
2022/05/28 15:03:29;;;;;;;2.67;0.98;;;;;;;;;;5028349;28;20107;-73
2022/05/28 15:05:55;;;;;;;5.05;1.08;;;;;;;;;;5028604;28;20029;-73
2022/05/28 15:08:26;;;;;;;2.33;0.60;;;;;;;;;;5029653;28;20033;-72
2022/05/28 15:10:53;;;;;;;5.47;0.90;;;;;;;;;;5028856;28;20021;-72
2022/05/28 15:13:22;;;;;;;4.63;1.80;;;;;;;;;;5028368;28;20064;-72
2022/05/28 15:15:50;;;;;;;5.22;1.00;;;;;;;;;;5028215;28;20037;-73